sensor_id;sensor_type;location;lat;lon;timestamp;temperature;humidity
40696;DHT22;40425;51.102;17.208;2023-02-28T00:02:54;1.60;99.90
40696;DHT22;40425;51.102;17.208;2023-02-28T00:07:55;1.70;99.90
40696;DHT22;40425;51.102;17.208;2023-02-28T00:13:01;1.60;99.90
40696;DHT22;40425;51.102;17.208;2023-02-28T00:18:02;1.70;99.90
40696;DHT22;40425;51.102;17.208;2023-02-28T00:23:03;1.70;99.90
40696;DHT22;40425;51.102;17.208;2023-02-28T00:28:04;1.50;99.90
40696;DHT22;40425;51.102;17.208;2023-02-28T00:33:05;1.60;99.90
40696;DHT22;40425;51.102;17.208;2023-02-28T00:38:06;1.60;99.90
40696;DHT22;40425;51.102;17.208;2023-02-28T00:43:07;1.60;99.90
40696;DHT22;40425;51.102;17.208;2023-02-28T00:48:08;1.60;99.90
40696;DHT22;40425;51.102;17.208;2023-02-28T00:53:09;1.80;99.90
40696;DHT22;40425;51.102;17.208;2023-02-28T00:58:09;1.70;99.90
40696;DHT22;40425;51.102;17.208;2023-02-28T01:03:10;1.70;99.90
40696;DHT22;40425;51.102;17.208;2023-02-28T01:08:12;1.70;99.90
40696;DHT22;40425;51.102;17.208;2023-02-28T01:13:13;1.70;99.90
40696;DHT22;40425;51.102;17.208;2023-02-28T01:18:14;1.80;99.90
40696;DHT22;40425;51.102;17.208;2023-02-28T01:23:15;1.80;99.90
40696;DHT22;40425;51.102;17.208;2023-02-28T01:28:16;1.90;99.90
40696;DHT22;40425;51.102;17.208;2023-02-28T01:33:17;1.80;99.90
40696;DHT22;40425;51.102;17.208;2023-02-28T01:38:18;1.70;99.90
40696;DHT22;40425;51.102;17.208;2023-02-28T01:43:31;1.60;99.90
40696;DHT22;40425;51.102;17.208;2023-02-28T01:48:34;1.60;99.90
40696;DHT22;40425;51.102;17.208;2023-02-28T01:53:45;1.50;99.90
40696;DHT22;40425;51.102;17.208;2023-02-28T01:58:49;1.50;99.90
40696;DHT22;40425;51.102;17.208;2023-02-28T02:03:54;1.50;99.90
40696;DHT22;40425;51.102;17.208;2023-02-28T02:08:56;1.60;99.90
40696;DHT22;40425;51.102;17.208;2023-02-28T02:35:18;1.50;99.90
40696;DHT22;40425;51.102;17.208;2023-02-28T02:40:33;1.50;99.90
40696;DHT22;40425;51.102;17.208;2023-02-28T02:45:41;1.60;99.90
40696;DHT22;40425;51.102;17.208;2023-02-28T02:51:06;1.70;99.90
40696;DHT22;40425;51.102;17.208;2023-02-28T02:56:12;1.60;99.90
40696;DHT22;40425;51.102;17.208;2023-02-28T03:01:25;1.60;99.90
40696;DHT22;40425;51.102;17.208;2023-02-28T03:06:29;1.50;99.90
40696;DHT22;40425;51.102;17.208;2023-02-28T03:11:31;1.40;99.90
40696;DHT22;40425;51.102;17.208;2023-02-28T03:27:23;1.40;99.90
40696;DHT22;40425;51.102;17.208;2023-02-28T03:32:29;1.40;99.90
40696;DHT22;40425;51.102;17.208;2023-02-28T03:37:35;1.30;99.90
40696;DHT22;40425;51.102;17.208;2023-02-28T03:42:39;1.30;99.90
40696;DHT22;40425;51.102;17.208;2023-02-28T03:47:51;1.30;99.90
40696;DHT22;40425;51.102;17.208;2023-02-28T03:58:25;1.40;99.90
40696;DHT22;40425;51.102;17.208;2023-02-28T04:03:27;1.30;99.90
40696;DHT22;40425;51.102;17.208;2023-02-28T04:08:28;1.20;99.90
40696;DHT22;40425;51.102;17.208;2023-02-28T04:13:29;1.20;99.90
40696;DHT22;40425;51.102;17.208;2023-02-28T04:18:30;1.20;99.90
40696;DHT22;40425;51.102;17.208;2023-02-28T04:23:31;1.30;99.90
40696;DHT22;40425;51.102;17.208;2023-02-28T04:28:32;1.30;99.90
40696;DHT22;40425;51.102;17.208;2023-02-28T04:33:33;1.40;99.90
40696;DHT22;40425;51.102;17.208;2023-02-28T04:38:36;1.40;99.90
40696;DHT22;40425;51.102;17.208;2023-02-28T04:43:37;1.30;99.90
40696;DHT22;40425;51.102;17.208;2023-02-28T04:48:39;1.30;99.90
40696;DHT22;40425;51.102;17.208;2023-02-28T04:53:41;1.40;99.90
40696;DHT22;40425;51.102;17.208;2023-02-28T04:58:42;1.40;99.90
40696;DHT22;40425;51.102;17.208;2023-02-28T05:03:43;1.50;99.90
40696;DHT22;40425;51.102;17.208;2023-02-28T05:08:44;1.40;99.90
40696;DHT22;40425;51.102;17.208;2023-02-28T05:13:45;1.30;99.90
40696;DHT22;40425;51.102;17.208;2023-02-28T05:18:47;1.30;99.90
40696;DHT22;40425;51.102;17.208;2023-02-28T05:23:48;1.40;99.90
40696;DHT22;40425;51.102;17.208;2023-02-28T05:28:49;1.30;99.90
40696;DHT22;40425;51.102;17.208;2023-02-28T05:33:50;1.40;99.90
40696;DHT22;40425;51.102;17.208;2023-02-28T05:38:51;1.40;99.90
40696;DHT22;40425;51.102;17.208;2023-02-28T05:43:52;1.40;99.90
40696;DHT22;40425;51.102;17.208;2023-02-28T05:48:54;1.30;99.90
40696;DHT22;40425;51.102;17.208;2023-02-28T05:53:59;1.40;99.90
40696;DHT22;40425;51.102;17.208;2023-02-28T05:59:00;1.40;99.90
40696;DHT22;40425;51.102;17.208;2023-02-28T06:04:03;1.50;99.90
40696;DHT22;40425;51.102;17.208;2023-02-28T06:09:05;1.40;99.90
40696;DHT22;40425;51.102;17.208;2023-02-28T06:14:07;1.60;99.90
40696;DHT22;40425;51.102;17.208;2023-02-28T06:19:09;1.40;99.90
40696;DHT22;40425;51.102;17.208;2023-02-28T06:24:11;1.40;99.90
40696;DHT22;40425;51.102;17.208;2023-02-28T06:29:12;1.40;99.90
40696;DHT22;40425;51.102;17.208;2023-02-28T06:34:14;1.30;99.90
40696;DHT22;40425;51.102;17.208;2023-02-28T06:39:15;1.30;99.90
40696;DHT22;40425;51.102;17.208;2023-02-28T06:44:17;1.40;99.90
40696;DHT22;40425;51.102;17.208;2023-02-28T06:49:18;1.60;99.90
40696;DHT22;40425;51.102;17.208;2023-02-28T06:54:19;1.70;99.90
40696;DHT22;40425;51.102;17.208;2023-02-28T06:59:20;1.80;99.90
40696;DHT22;40425;51.102;17.208;2023-02-28T07:04:22;2.20;99.90
40696;DHT22;40425;51.102;17.208;2023-02-28T07:09:23;1.80;99.90
40696;DHT22;40425;51.102;17.208;2023-02-28T07:14:24;1.90;99.90
40696;DHT22;40425;51.102;17.208;2023-02-28T07:19:25;1.90;99.90
40696;DHT22;40425;51.102;17.208;2023-02-28T07:24:27;2.00;99.90
40696;DHT22;40425;51.102;17.208;2023-02-28T07:29:28;2.00;99.90
40696;DHT22;40425;51.102;17.208;2023-02-28T07:34:29;2.10;99.90
40696;DHT22;40425;51.102;17.208;2023-02-28T07:39:30;2.10;99.90
40696;DHT22;40425;51.102;17.208;2023-02-28T07:44:31;2.20;99.90
40696;DHT22;40425;51.102;17.208;2023-02-28T07:49:32;2.30;99.90
40696;DHT22;40425;51.102;17.208;2023-02-28T07:54:33;2.20;99.90
40696;DHT22;40425;51.102;17.208;2023-02-28T07:59:34;2.20;99.90
40696;DHT22;40425;51.102;17.208;2023-02-28T08:04:35;2.10;99.90
40696;DHT22;40425;51.102;17.208;2023-02-28T08:09:36;2.20;99.90
40696;DHT22;40425;51.102;17.208;2023-02-28T08:14:38;2.20;99.90
40696;DHT22;40425;51.102;17.208;2023-02-28T08:19:40;2.30;99.90
40696;DHT22;40425;51.102;17.208;2023-02-28T08:24:44;2.40;99.90
40696;DHT22;40425;51.102;17.208;2023-02-28T08:29:45;2.60;99.90
40696;DHT22;40425;51.102;17.208;2023-02-28T08:34:45;2.70;99.90
40696;DHT22;40425;51.102;17.208;2023-02-28T08:39:46;2.80;99.90
40696;DHT22;40425;51.102;17.208;2023-02-28T08:44:47;2.80;99.90
40696;DHT22;40425;51.102;17.208;2023-02-28T08:49:48;2.60;99.90
40696;DHT22;40425;51.102;17.208;2023-02-28T08:54:49;2.50;99.90
40696;DHT22;40425;51.102;17.208;2023-02-28T08:59:50;2.60;99.90
40696;DHT22;40425;51.102;17.208;2023-02-28T09:04:51;2.80;99.90
40696;DHT22;40425;51.102;17.208;2023-02-28T09:09:52;2.90;99.90
40696;DHT22;40425;51.102;17.208;2023-02-28T09:14:57;2.90;99.90
40696;DHT22;40425;51.102;17.208;2023-02-28T09:19:58;2.80;99.90
40696;DHT22;40425;51.102;17.208;2023-02-28T09:24:58;2.90;99.90
40696;DHT22;40425;51.102;17.208;2023-02-28T09:29:59;3.00;99.90
40696;DHT22;40425;51.102;17.208;2023-02-28T09:35:00;3.10;99.90
40696;DHT22;40425;51.102;17.208;2023-02-28T09:40:01;3.10;99.90
40696;DHT22;40425;51.102;17.208;2023-02-28T09:45:11;3.10;99.90
40696;DHT22;40425;51.102;17.208;2023-02-28T09:50:36;3.30;99.90
40696;DHT22;40425;51.102;17.208;2023-02-28T09:55:43;3.40;99.90
40696;DHT22;40425;51.102;17.208;2023-02-28T10:00:51;3.50;99.70
40696;DHT22;40425;51.102;17.208;2023-02-28T10:11:08;3.10;99.90
40696;DHT22;40425;51.102;17.208;2023-02-28T10:16:49;3.00;99.90
40696;DHT22;40425;51.102;17.208;2023-02-28T10:21:59;3.00;99.90
40696;DHT22;40425;51.102;17.208;2023-02-28T10:32:18;3.30;99.90
40696;DHT22;40425;51.102;17.208;2023-02-28T10:37:19;3.30;99.90
40696;DHT22;40425;51.102;17.208;2023-02-28T10:42:27;3.20;99.90
40696;DHT22;40425;51.102;17.208;2023-02-28T10:47:30;3.40;99.90
40696;DHT22;40425;51.102;17.208;2023-02-28T10:52:39;3.60;99.90
40696;DHT22;40425;51.102;17.208;2023-02-28T10:57:41;3.70;99.90
40696;DHT22;40425;51.102;17.208;2023-02-28T11:02:42;3.90;99.90
40696;DHT22;40425;51.102;17.208;2023-02-28T11:08:33;4.00;99.70
40696;DHT22;40425;51.102;17.208;2023-02-28T11:13:21;4.10;99.90
40696;DHT22;40425;51.102;17.208;2023-02-28T11:18:37;4.20;98.60
40696;DHT22;40425;51.102;17.208;2023-02-28T11:23:41;4.30;99.90
40696;DHT22;40425;51.102;17.208;2023-02-28T11:28:42;4.00;99.10
40696;DHT22;40425;51.102;17.208;2023-02-28T11:33:52;4.10;99.90
40696;DHT22;40425;51.102;17.208;2023-02-28T11:39:15;4.00;99.90
40696;DHT22;40425;51.102;17.208;2023-02-28T11:50:15;4.00;99.90
40696;DHT22;40425;51.102;17.208;2023-02-28T11:55:26;4.10;98.70
40696;DHT22;40425;51.102;17.208;2023-02-28T12:05:46;4.60;99.90
40696;DHT22;40425;51.102;17.208;2023-02-28T12:11:15;4.50;99.90
40696;DHT22;40425;51.102;17.208;2023-02-28T12:27:23;4.10;99.90
40696;DHT22;40425;51.102;17.208;2023-02-28T12:32:37;4.10;99.90
40696;DHT22;40425;51.102;17.208;2023-02-28T12:37:47;4.10;99.90
40696;DHT22;40425;51.102;17.208;2023-02-28T12:43:03;4.40;99.90
40696;DHT22;40425;51.102;17.208;2023-02-28T12:48:08;4.50;99.90
40696;DHT22;40425;51.102;17.208;2023-02-28T12:58:35;4.70;99.90
40696;DHT22;40425;51.102;17.208;2023-02-28T13:09:04;4.40;99.90
40696;DHT22;40425;51.102;17.208;2023-02-28T13:14:20;4.20;99.90
40696;DHT22;40425;51.102;17.208;2023-02-28T13:19:25;4.30;99.90
40696;DHT22;40425;51.102;17.208;2023-02-28T13:24:47;4.50;99.90
40696;DHT22;40425;51.102;17.208;2023-02-28T13:29:48;4.50;99.90
40696;DHT22;40425;51.102;17.208;2023-02-28T13:39:57;4.50;99.90
40696;DHT22;40425;51.102;17.208;2023-02-28T14:00:43;4.50;99.90
40696;DHT22;40425;51.102;17.208;2023-02-28T14:05:46;4.50;99.90
40696;DHT22;40425;51.102;17.208;2023-02-28T14:11:02;4.50;99.90
40696;DHT22;40425;51.102;17.208;2023-02-28T14:16:05;4.50;99.90
40696;DHT22;40425;51.102;17.208;2023-02-28T14:21:25;4.50;99.90
40696;DHT22;40425;51.102;17.208;2023-02-28T14:26:49;4.40;99.90
40696;DHT22;40425;51.102;17.208;2023-02-28T14:37:33;4.20;99.90
40696;DHT22;40425;51.102;17.208;2023-02-28T14:42:37;4.30;99.90
40696;DHT22;40425;51.102;17.208;2023-02-28T14:47:42;4.20;99.90
40696;DHT22;40425;51.102;17.208;2023-02-28T14:52:43;4.20;99.90
40696;DHT22;40425;51.102;17.208;2023-02-28T14:57:56;4.20;99.90
40696;DHT22;40425;51.102;17.208;2023-02-28T15:02:59;4.30;99.90
40696;DHT22;40425;51.102;17.208;2023-02-28T15:08:05;4.40;99.90
40696;DHT22;40425;51.102;17.208;2023-02-28T15:13:10;4.40;99.90
40696;DHT22;40425;51.102;17.208;2023-02-28T15:23:30;4.30;99.90
40696;DHT22;40425;51.102;17.208;2023-02-28T15:28:32;4.30;99.90
40696;DHT22;40425;51.102;17.208;2023-02-28T15:33:33;4.30;99.90
40696;DHT22;40425;51.102;17.208;2023-02-28T15:38:36;4.30;99.90
40696;DHT22;40425;51.102;17.208;2023-02-28T15:43:46;4.20;99.90
40696;DHT22;40425;51.102;17.208;2023-02-28T15:48:52;4.00;99.90
40696;DHT22;40425;51.102;17.208;2023-02-28T15:54:02;3.80;99.90
40696;DHT22;40425;51.102;17.208;2023-02-28T15:59:15;3.70;99.90
40696;DHT22;40425;51.102;17.208;2023-02-28T16:04:19;3.50;99.90
40696;DHT22;40425;51.102;17.208;2023-02-28T16:09:21;3.30;99.90
40696;DHT22;40425;51.102;17.208;2023-02-28T16:14:24;3.10;99.90
40696;DHT22;40425;51.102;17.208;2023-02-28T16:19:27;3.00;99.90
40696;DHT22;40425;51.102;17.208;2023-02-28T16:24:29;2.80;99.90
40696;DHT22;40425;51.102;17.208;2023-02-28T16:29:34;2.60;99.90
40696;DHT22;40425;51.102;17.208;2023-02-28T16:34:36;2.50;99.90
40696;DHT22;40425;51.102;17.208;2023-02-28T16:39:39;2.40;99.90
40696;DHT22;40425;51.102;17.208;2023-02-28T16:44:40;2.30;99.90
40696;DHT22;40425;51.102;17.208;2023-02-28T16:49:41;2.10;99.90
40696;DHT22;40425;51.102;17.208;2023-02-28T16:54:43;2.00;99.90
40696;DHT22;40425;51.102;17.208;2023-02-28T16:59:44;1.80;99.90
40696;DHT22;40425;51.102;17.208;2023-02-28T17:04:46;1.80;99.90
40696;DHT22;40425;51.102;17.208;2023-02-28T17:09:46;1.70;99.90
40696;DHT22;40425;51.102;17.208;2023-02-28T17:14:47;1.60;99.90
40696;DHT22;40425;51.102;17.208;2023-02-28T17:19:48;1.60;99.90
40696;DHT22;40425;51.102;17.208;2023-02-28T17:24:49;1.50;99.90
40696;DHT22;40425;51.102;17.208;2023-02-28T17:29:50;1.50;99.90
40696;DHT22;40425;51.102;17.208;2023-02-28T17:34:51;1.40;99.90
40696;DHT22;40425;51.102;17.208;2023-02-28T17:39:52;1.30;99.90
40696;DHT22;40425;51.102;17.208;2023-02-28T17:44:53;1.30;99.90
40696;DHT22;40425;51.102;17.208;2023-02-28T17:49:54;1.30;99.90
40696;DHT22;40425;51.102;17.208;2023-02-28T17:54:55;1.30;99.90
40696;DHT22;40425;51.102;17.208;2023-02-28T17:59:56;1.20;99.90
40696;DHT22;40425;51.102;17.208;2023-02-28T18:04:57;1.10;99.90
40696;DHT22;40425;51.102;17.208;2023-02-28T18:09:58;0.90;99.90
40696;DHT22;40425;51.102;17.208;2023-02-28T18:14:59;0.80;99.90
40696;DHT22;40425;51.102;17.208;2023-02-28T18:20:00;0.90;99.90
40696;DHT22;40425;51.102;17.208;2023-02-28T18:25:03;0.80;99.90
40696;DHT22;40425;51.102;17.208;2023-02-28T18:30:04;0.70;99.90
40696;DHT22;40425;51.102;17.208;2023-02-28T18:35:06;0.80;99.90
40696;DHT22;40425;51.102;17.208;2023-02-28T18:40:08;0.70;99.90
40696;DHT22;40425;51.102;17.208;2023-02-28T18:45:09;0.70;99.90
40696;DHT22;40425;51.102;17.208;2023-02-28T18:50:11;0.70;99.90
40696;DHT22;40425;51.102;17.208;2023-02-28T18:55:11;0.60;99.90
40696;DHT22;40425;51.102;17.208;2023-02-28T19:00:18;0.60;99.90
40696;DHT22;40425;51.102;17.208;2023-02-28T19:05:22;0.50;99.90
40696;DHT22;40425;51.102;17.208;2023-02-28T19:10:23;0.50;99.90
40696;DHT22;40425;51.102;17.208;2023-02-28T19:15:24;0.40;99.90
40696;DHT22;40425;51.102;17.208;2023-02-28T19:20:25;0.40;99.90
40696;DHT22;40425;51.102;17.208;2023-02-28T19:25:26;0.30;99.90
40696;DHT22;40425;51.102;17.208;2023-02-28T19:30:27;0.20;99.90
40696;DHT22;40425;51.102;17.208;2023-02-28T19:35:28;0.20;99.90
40696;DHT22;40425;51.102;17.208;2023-02-28T19:40:29;0.30;99.90
40696;DHT22;40425;51.102;17.208;2023-02-28T19:45:37;0.20;99.90
40696;DHT22;40425;51.102;17.208;2023-02-28T19:50:38;0.30;99.90
40696;DHT22;40425;51.102;17.208;2023-02-28T19:55:41;0.20;99.90
40696;DHT22;40425;51.102;17.208;2023-02-28T20:00:42;0.00;99.90
40696;DHT22;40425;51.102;17.208;2023-02-28T20:05:44;0.00;99.90
40696;DHT22;40425;51.102;17.208;2023-02-28T20:10:45;0.00;99.90
40696;DHT22;40425;51.102;17.208;2023-02-28T20:15:46;0.00;99.90
40696;DHT22;40425;51.102;17.208;2023-02-28T20:20:47;0.00;99.90
40696;DHT22;40425;51.102;17.208;2023-02-28T20:25:48;-0.10;99.90
40696;DHT22;40425;51.102;17.208;2023-02-28T20:30:51;-0.10;99.90
40696;DHT22;40425;51.102;17.208;2023-02-28T20:35:59;-0.10;99.90
40696;DHT22;40425;51.102;17.208;2023-02-28T20:41:01;-0.20;99.90
40696;DHT22;40425;51.102;17.208;2023-02-28T20:46:02;-0.10;99.90
40696;DHT22;40425;51.102;17.208;2023-02-28T20:51:04;-0.10;99.90
40696;DHT22;40425;51.102;17.208;2023-02-28T20:56:06;-0.20;99.90
40696;DHT22;40425;51.102;17.208;2023-02-28T21:01:18;-0.20;99.90
40696;DHT22;40425;51.102;17.208;2023-02-28T21:06:40;-0.20;99.90
40696;DHT22;40425;51.102;17.208;2023-02-28T21:11:47;-0.20;99.90
40696;DHT22;40425;51.102;17.208;2023-02-28T21:16:49;-0.20;99.90
40696;DHT22;40425;51.102;17.208;2023-02-28T21:21:50;-0.20;99.90
40696;DHT22;40425;51.102;17.208;2023-02-28T21:26:50;-0.40;99.90
40696;DHT22;40425;51.102;17.208;2023-02-28T21:31:53;-0.60;99.90
40696;DHT22;40425;51.102;17.208;2023-02-28T21:36:54;-0.80;99.90
40696;DHT22;40425;51.102;17.208;2023-02-28T21:41:55;-0.70;99.90
40696;DHT22;40425;51.102;17.208;2023-02-28T21:47:03;-0.50;99.90
40696;DHT22;40425;51.102;17.208;2023-02-28T21:52:04;-0.40;99.90
40696;DHT22;40425;51.102;17.208;2023-02-28T21:57:05;-0.50;99.90
40696;DHT22;40425;51.102;17.208;2023-02-28T22:02:08;-0.60;99.90
40696;DHT22;40425;51.102;17.208;2023-02-28T22:07:10;-0.70;99.90
40696;DHT22;40425;51.102;17.208;2023-02-28T22:12:11;-0.80;99.90
40696;DHT22;40425;51.102;17.208;2023-02-28T22:17:11;-0.70;99.90
40696;DHT22;40425;51.102;17.208;2023-02-28T22:22:12;-0.70;99.90
40696;DHT22;40425;51.102;17.208;2023-02-28T22:27:13;-0.80;99.90
40696;DHT22;40425;51.102;17.208;2023-02-28T22:32:14;-0.90;99.90
40696;DHT22;40425;51.102;17.208;2023-02-28T22:37:15;-1.00;99.90
40696;DHT22;40425;51.102;17.208;2023-02-28T22:42:16;-1.00;99.90
40696;DHT22;40425;51.102;17.208;2023-02-28T22:47:17;-1.40;99.90
40696;DHT22;40425;51.102;17.208;2023-02-28T22:52:17;-1.40;99.90
40696;DHT22;40425;51.102;17.208;2023-02-28T22:57:19;-1.20;99.90
40696;DHT22;40425;51.102;17.208;2023-02-28T23:02:20;-1.10;99.90
40696;DHT22;40425;51.102;17.208;2023-02-28T23:07:21;-1.10;99.90
40696;DHT22;40425;51.102;17.208;2023-02-28T23:12:22;-1.20;99.90
40696;DHT22;40425;51.102;17.208;2023-02-28T23:17:22;-1.20;99.90
40696;DHT22;40425;51.102;17.208;2023-02-28T23:22:23;-1.20;99.90
40696;DHT22;40425;51.102;17.208;2023-02-28T23:27:24;-1.50;99.90
40696;DHT22;40425;51.102;17.208;2023-02-28T23:32:25;-1.50;99.90
40696;DHT22;40425;51.102;17.208;2023-02-28T23:37:26;-1.50;99.90
40696;DHT22;40425;51.102;17.208;2023-02-28T23:42:27;-1.60;99.90
40696;DHT22;40425;51.102;17.208;2023-02-28T23:47:28;-1.50;99.90
40696;DHT22;40425;51.102;17.208;2023-02-28T23:52:30;-1.20;99.90
40696;DHT22;40425;51.102;17.208;2023-02-28T23:57:33;-1.00;99.90
